Time;durP1;ratioP1;P1;durP2;ratioP2;P2;SDS_P1;SDS_P2;PMS_P1;PMS_P2;Temp;Humidity;BMP_temperature;BMP_pressure;BME280_temperature;BME280_humidity;BME280_pressure;Samples;Min_cycle;Max_cycle;Signal;HPM_P1;HPM_P2
2020/12/15 00:00:19;;;;;;;8.13;4.80;;;;;;;;;;5022741;28;20577;-71
2020/12/15 00:02:44;;;;;;;10.17;5.73;;;;;;;;;;5029782;28;20182;-72
2020/12/15 00:05:10;;;;;;;9.97;4.97;;;;;;;;;;5020915;28;20273;-72
2020/12/15 00:07:37;;;;;;;8.77;5.63;;;;;;;;;;5022293;28;20214;-72
2020/12/15 00:10:03;;;;;;;10.73;6.33;;;;;;;;;;5018481;28;20305;-72
2020/12/15 00:12:28;;;;;;;10.23;5.97;;;;;;;;;;5024913;28;20651;-72
2020/12/15 00:14:53;;;;;;;9.63;6.10;;;;;;;;;;5017945;28;20178;-72
2020/12/15 00:17:18;;;;;;;8.73;5.73;;;;;;;;;;5023421;28;20186;-72
2020/12/15 00:19:44;;;;;;;9.37;5.47;;;;;;;;;;5019810;28;20203;-72
2020/12/15 00:22:09;;;;;;;9.33;5.97;;;;;;;;;;5027897;28;20595;-72
2020/12/15 00:24:35;;;;;;;9.60;5.40;;;;;;;;;;5030944;28;20677;-72
2020/12/15 00:27:00;;;;;;;9.37;5.70;;;;;;;;;;5014260;28;20182;-72
2020/12/15 00:29:26;;;;;;;8.70;6.00;;;;;;;;;;5019834;28;20190;-72
2020/12/15 00:31:51;;;;;;;9.90;6.47;;;;;;;;;;5012691;28;20529;-72
2020/12/15 00:34:16;;;;;;;10.27;6.10;;;;;;;;;;5028489;28;20226;-72
2020/12/15 00:36:42;;;;;;;6.10;5.00;;;;;;;;;;5013914;28;20675;-72
2020/12/15 00:39:07;;;;;;;10.33;6.20;;;;;;;;;;5024085;28;20174;-72
2020/12/15 00:41:32;;;;;;;8.50;5.77;;;;;;;;;;5018061;28;20213;-72
2020/12/15 00:43:58;;;;;;;7.93;5.77;;;;;;;;;;5018966;28;20575;-72
2020/12/15 00:46:23;;;;;;;9.70;5.67;;;;;;;;;;5014692;28;20324;-72
2020/12/15 00:48:48;;;;;;;12.87;6.33;;;;;;;;;;5028178;28;20221;-72
2020/12/15 00:51:18;;;;;;;9.43;6.17;;;;;;;;;;5017112;28;20205;-72
2020/12/15 00:53:45;;;;;;;8.50;5.73;;;;;;;;;;5027000;28;20265;-72
2020/12/15 00:56:11;;;;;;;8.47;6.00;;;;;;;;;;5019530;28;20628;-72
2020/12/15 00:58:36;;;;;;;10.27;6.07;;;;;;;;;;5027551;28;20170;-72
2020/12/15 01:01:04;;;;;;;8.20;6.10;;;;;;;;;;5026215;28;20324;-72
2020/12/15 01:03:30;;;;;;;8.23;6.00;;;;;;;;;;5019678;28;20190;-72
2020/12/15 01:05:55;;;;;;;11.40;6.27;;;;;;;;;;5017654;28;20186;-73
2020/12/15 01:08:21;;;;;;;11.43;6.17;;;;;;;;;;5020833;28;20218;-72
2020/12/15 01:10:46;;;;;;;10.27;6.40;;;;;;;;;;5022345;28;20182;-72
2020/12/15 01:13:11;;;;;;;12.47;5.80;;;;;;;;;;5021244;28;20190;-73
2020/12/15 01:15:37;;;;;;;8.97;6.20;;;;;;;;;;5024856;28;20183;-73
2020/12/15 01:18:02;;;;;;;9.77;5.57;;;;;;;;;;5020681;28;20185;-72
2020/12/15 01:20:27;;;;;;;9.83;6.50;;;;;;;;;;5022643;28;20198;-71
2020/12/15 01:22:52;;;;;;;9.70;6.40;;;;;;;;;;5016383;28;20186;-70
2020/12/15 01:25:18;;;;;;;11.07;5.83;;;;;;;;;;5024542;28;20703;-70
2020/12/15 01:27:43;;;;;;;11.77;5.67;;;;;;;;;;5018008;28;20206;-71
2020/12/15 01:30:08;;;;;;;11.90;6.17;;;;;;;;;;5025454;28;20209;-70
2020/12/15 01:32:34;;;;;;;9.03;5.77;;;;;;;;;;5021714;28;20178;-70
2020/12/15 01:34:59;;;;;;;13.10;6.57;;;;;;;;;;5014397;28;20238;-71
2020/12/15 01:37:25;;;;;;;10.23;5.47;;;;;;;;;;5030172;28;20174;-70
2020/12/15 01:39:50;;;;;;;9.70;5.63;;;;;;;;;;5014454;28;20190;-70
2020/12/15 01:42:15;;;;;;;7.50;5.00;;;;;;;;;;5025065;28;20204;-70
2020/12/15 01:44:41;;;;;;;8.60;5.33;;;;;;;;;;5013870;28;20181;-70
2020/12/15 01:47:06;;;;;;;9.20;5.30;;;;;;;;;;5027399;28;20236;-70
2020/12/15 01:49:31;;;;;;;9.63;5.20;;;;;;;;;;5017099;28;20200;-70
2020/12/15 01:51:58;;;;;;;8.63;5.07;;;;;;;;;;5028320;28;20192;-70
2020/12/15 01:54:24;;;;;;;9.17;5.30;;;;;;;;;;5013288;28;20222;-70
2020/12/15 01:56:49;;;;;;;8.73;5.43;;;;;;;;;;5030183;28;20206;-71
2020/12/15 01:59:15;;;;;;;10.40;5.70;;;;;;;;;;5022904;28;20186;-70
2020/12/15 02:01:45;;;;;;;9.63;5.47;;;;;;;;;;5016171;28;20186;-71
2020/12/15 02:04:11;;;;;;;11.80;5.33;;;;;;;;;;5023699;28;20332;-71
2020/12/15 02:06:37;;;;;;;8.27;5.30;;;;;;;;;;5019903;28;20723;-72
2020/12/15 02:09:04;;;;;;;8.03;5.37;;;;;;;;;;5021971;28;20198;-72
2020/12/15 02:11:30;;;;;;;11.47;5.30;;;;;;;;;;5020570;28;20300;-72
2020/12/15 02:13:55;;;;;;;6.87;5.00;;;;;;;;;;5023575;28;20218;-73
2020/12/15 02:16:21;;;;;;;10.60;5.47;;;;;;;;;;5021472;28;20211;-71
2020/12/15 02:18:46;;;;;;;10.00;5.00;;;;;;;;;;5023516;28;20762;-72
2020/12/15 02:21:12;;;;;;;9.40;5.37;;;;;;;;;;5018414;28;20223;-73
2020/12/15 02:23:37;;;;;;;7.60;5.07;;;;;;;;;;5024780;28;20192;-72
2020/12/15 02:26:05;;;;;;;8.33;4.93;;;;;;;;;;5015530;28;20190;-72
2020/12/15 02:28:30;;;;;;;7.57;4.33;;;;;;;;;;5024512;28;20280;-71
2020/12/15 02:30:56;;;;;;;7.60;4.93;;;;;;;;;;5021261;28;20214;-71
2020/12/15 02:33:21;;;;;;;8.13;5.37;;;;;;;;;;5020900;28;20221;-71
2020/12/15 02:35:46;;;;;;;11.73;4.73;;;;;;;;;;5028933;28;20300;-71
2020/12/15 02:38:12;;;;;;;15.10;5.30;;;;;;;;;;5014510;28;20187;-71
2020/12/15 02:40:37;;;;;;;12.97;5.50;;;;;;;;;;5026396;28;20186;-71
2020/12/15 02:43:02;;;;;;;9.30;5.60;;;;;;;;;;5015642;28;20185;-71
2020/12/15 02:45:28;;;;;;;10.00;5.53;;;;;;;;;;5025356;28;20695;-71
2020/12/15 02:47:53;;;;;;;8.53;5.63;;;;;;;;;;5016790;28;20210;-71
2020/12/15 02:50:24;;;;;;;9.97;5.30;;;;;;;;;;5025828;28;20182;-71
2020/12/15 02:52:49;;;;;;;8.03;4.83;;;;;;;;;;5017191;28;20186;-71
2020/12/15 02:55:15;;;;;;;10.10;4.67;;;;;;;;;;5026831;28;20190;-71
2020/12/15 02:57:41;;;;;;;10.27;5.13;;;;;;;;;;5015207;28;20298;-70
2020/12/15 03:00:08;;;;;;;9.40;5.13;;;;;;;;;;5024435;28;20257;-70
2020/12/15 03:02:34;;;;;;;8.87;4.90;;;;;;;;;;5016024;28;20295;-70
2020/12/15 03:04:59;;;;;;;8.77;5.03;;;;;;;;;;5026125;28;20182;-70
2020/12/15 03:07:24;;;;;;;15.07;5.13;;;;;;;;;;5022448;28;20293;-70
2020/12/15 03:09:50;;;;;;;9.47;5.10;;;;;;;;;;5017933;28;20220;-70
2020/12/15 03:12:15;;;;;;;7.13;4.83;;;;;;;;;;5024111;28;20687;-70
2020/12/15 03:14:40;;;;;;;7.50;4.83;;;;;;;;;;5018665;28;20187;-72
2020/12/15 03:17:06;;;;;;;11.00;5.37;;;;;;;;;;5021364;28;20194;-72
2020/12/15 03:19:31;;;;;;;7.10;4.70;;;;;;;;;;5016070;28;20191;-72
2020/12/15 03:21:56;;;;;;;7.23;5.30;;;;;;;;;;5023849;28;20186;-72
2020/12/15 03:24:22;;;;;;;8.87;5.03;;;;;;;;;;5016518;28;20550;-72
2020/12/15 03:26:47;;;;;;;10.73;5.60;;;;;;;;;;5026356;28;20273;-71
2020/12/15 03:29:12;;;;;;;10.30;4.63;;;;;;;;;;5022283;28;20617;-69
2020/12/15 03:31:38;;;;;;;7.07;4.83;;;;;;;;;;5028913;28;20190;-70
2020/12/15 03:34:03;;;;;;;7.37;4.97;;;;;;;;;;5022239;28;20280;-70
2020/12/15 03:36:28;;;;;;;10.53;5.47;;;;;;;;;;5017815;28;20213;-69
2020/12/15 03:38:54;;;;;;;12.57;5.97;;;;;;;;;;5030033;28;20696;-70
2020/12/15 03:41:19;;;;;;;10.17;6.03;;;;;;;;;;5019074;28;20488;-69
2020/12/15 03:43:44;;;;;;;8.70;5.27;;;;;;;;;;5029337;28;20222;-69
2020/12/15 03:46:10;;;;;;;11.20;5.47;;;;;;;;;;5020496;28;20214;-69
2020/12/15 03:48:35;;;;;;;9.10;5.00;;;;;;;;;;5027424;28;20232;-70
2020/12/15 03:51:00;;;;;;;7.63;5.30;;;;;;;;;;5012041;28;20182;-69
2020/12/15 03:53:25;;;;;;;11.63;5.53;;;;;;;;;;5021861;28;20197;-70
2020/12/15 03:55:51;;;;;;;9.67;5.90;;;;;;;;;;5011811;28;20186;-70
2020/12/15 03:58:17;;;;;;;9.63;5.50;;;;;;;;;;5016883;28;20174;-69
2020/12/15 04:00:43;;;;;;;13.10;6.27;;;;;;;;;;5015364;28;21453;-69
2020/12/15 04:03:08;;;;;;;11.93;6.47;;;;;;;;;;5019497;28;20190;-70
2020/12/15 04:05:34;;;;;;;13.80;6.80;;;;;;;;;;5017308;28;20206;-70
2020/12/15 04:07:59;;;;;;;13.50;6.13;;;;;;;;;;5028516;28;20206;-70
2020/12/15 04:10:25;;;;;;;10.03;5.77;;;;;;;;;;5026394;28;20225;-69
2020/12/15 04:12:50;;;;;;;11.53;6.37;;;;;;;;;;5019631;28;20570;-70
2020/12/15 04:15:16;;;;;;;12.77;6.43;;;;;;;;;;5025567;28;20240;-69
2020/12/15 04:17:41;;;;;;;10.20;7.03;;;;;;;;;;5009573;28;20183;-70
2020/12/15 04:20:07;;;;;;;9.70;5.90;;;;;;;;;;5023848;28;20178;-70
2020/12/15 04:22:33;;;;;;;13.60;6.60;;;;;;;;;;5011676;28;20183;-70
2020/12/15 04:25:00;;;;;;;12.40;6.00;;;;;;;;;;5022549;28;20246;-70
2020/12/15 04:27:26;;;;;;;11.33;6.00;;;;;;;;;;5012629;28;20246;-70
2020/12/15 04:29:51;;;;;;;10.30;6.23;;;;;;;;;;5021231;28;20182;-70
2020/12/15 04:32:17;;;;;;;13.43;6.03;;;;;;;;;;5015483;28;20208;-69
2020/12/15 04:34:42;;;;;;;11.60;6.50;;;;;;;;;;5027309;28;20225;-69
2020/12/15 04:37:07;;;;;;;13.93;6.87;;;;;;;;;;5016782;28;20206;-70
2020/12/15 04:39:33;;;;;;;12.17;6.60;;;;;;;;;;5018683;28;20198;-70
2020/12/15 04:41:58;;;;;;;13.63;6.37;;;;;;;;;;5027805;28;20571;-70
2020/12/15 04:44:24;;;;;;;14.00;6.50;;;;;;;;;;5016629;28;20213;-70
2020/12/15 04:47:22;;;;;;;12.27;6.70;;;;;;;;;;5026040;28;20182;-70
2020/12/15 04:50:05;;;;;;;11.03;6.70;;;;;;;;;;5017404;28;20202;-72
2020/12/15 04:52:41;;;;;;;12.90;6.30;;;;;;;;;;5027856;28;20217;-72
2020/12/15 04:55:07;;;;;;;12.73;6.30;;;;;;;;;;5032072;28;20294;-72
2020/12/15 04:57:34;;;;;;;10.80;6.00;;;;;;;;;;5027642;28;20328;-72
2020/12/15 05:00:00;;;;;;;9.43;5.90;;;;;;;;;;5017485;28;20185;-72
2020/12/15 05:02:25;;;;;;;9.63;6.37;;;;;;;;;;5028372;28;20597;-72
2020/12/15 05:04:52;;;;;;;14.63;7.60;;;;;;;;;;5018395;28;20208;-72
2020/12/15 05:07:17;;;;;;;14.13;6.67;;;;;;;;;;5028452;28;20257;-72
2020/12/15 05:09:42;;;;;;;12.80;6.23;;;;;;;;;;5018919;28;20222;-72
2020/12/15 05:12:08;;;;;;;8.93;5.50;;;;;;;;;;5027059;28;20193;-72
2020/12/15 05:14:33;;;;;;;9.97;6.00;;;;;;;;;;5016650;28;20204;-72
2020/12/15 05:16:59;;;;;;;11.13;6.07;;;;;;;;;;5026527;28;20194;-72
2020/12/15 05:19:24;;;;;;;12.20;6.90;;;;;;;;;;5019360;28;20169;-70
2020/12/15 05:21:59;;;;;;;10.30;6.30;;;;;;;;;;5025934;28;20204;-70
2020/12/15 05:24:29;;;;;;;13.67;6.13;;;;;;;;;;5028422;28;20182;-70
2020/12/15 05:26:56;;;;;;;10.87;6.53;;;;;;;;;;5016952;28;20178;-70
2020/12/15 05:29:22;;;;;;;11.73;6.37;;;;;;;;;;5028817;28;20221;-70
2020/12/15 05:31:48;;;;;;;10.77;6.10;;;;;;;;;;5013960;28;20185;-70
2020/12/15 05:34:20;;;;;;;9.53;6.47;;;;;;;;;;5027087;28;20225;-70
2020/12/15 05:36:51;;;;;;;11.63;5.87;;;;;;;;;;5015287;28;20182;-70
2020/12/15 05:39:16;;;;;;;13.27;6.40;;;;;;;;;;5030629;28;20204;-70
2020/12/15 05:41:42;;;;;;;12.27;6.87;;;;;;;;;;5017597;28;20183;-70
2020/12/15 05:44:08;;;;;;;13.63;6.43;;;;;;;;;;5029736;28;20178;-70
2020/12/15 05:46:36;;;;;;;14.67;6.40;;;;;;;;;;5015880;28;20181;-70
2020/12/15 05:49:04;;;;;;;11.53;6.07;;;;;;;;;;5027459;28;20679;-70
2020/12/15 05:51:42;;;;;;;15.03;6.57;;;;;;;;;;5015300;28;20270;-70
2020/12/15 05:54:09;;;;;;;10.87;6.60;;;;;;;;;;5024669;28;20596;-70
2020/12/15 05:56:37;;;;;;;10.47;6.20;;;;;;;;;;5012676;28;21299;-70
2020/12/15 05:59:17;;;;;;;10.73;6.73;;;;;;;;;;5017354;28;20179;-70
2020/12/15 06:01:43;;;;;;;10.83;6.30;;;;;;;;;;5010817;28;26698;-70
2020/12/15 06:04:08;;;;;;;12.10;7.13;;;;;;;;;;5026442;28;20182;-70
2020/12/15 06:06:36;;;;;;;11.30;6.70;;;;;;;;;;5024909;28;20360;-70
2020/12/15 06:09:02;;;;;;;13.73;5.97;;;;;;;;;;5017329;28;20242;-70
2020/12/15 06:11:32;;;;;;;14.07;7.07;;;;;;;;;;5023375;28;20186;-70
2020/12/15 06:13:58;;;;;;;11.30;6.53;;;;;;;;;;5019435;28;20194;-70
2020/12/15 06:16:23;;;;;;;14.10;7.40;;;;;;;;;;5025737;28;20181;-70
2020/12/15 06:18:49;;;;;;;11.30;7.30;;;;;;;;;;5017085;28;20658;-70
2020/12/15 06:21:14;;;;;;;12.47;7.23;;;;;;;;;;4328334;28;10021522;-70
2020/12/15 06:23:40;;;;;;;11.93;6.50;;;;;;;;;;5013565;28;20615;-70
2020/12/15 06:26:05;;;;;;;12.70;7.13;;;;;;;;;;5018703;28;20644;-70
2020/12/15 06:28:32;;;;;;;11.80;7.73;;;;;;;;;;5015186;28;20240;-70
2020/12/15 06:30:59;;;;;;;13.77;7.60;;;;;;;;;;5019482;28;20285;-70
2020/12/15 06:33:34;;;;;;;14.97;8.17;;;;;;;;;;5015283;28;20680;-70
2020/12/15 06:35:59;;;;;;;15.60;7.83;;;;;;;;;;5022000;28;20225;-70
2020/12/15 06:38:25;;;;;;;15.63;7.50;;;;;;;;;;5017309;28;20656;-70
2020/12/15 06:40:50;;;;;;;13.37;7.87;;;;;;;;;;5021456;28;20193;-70
2020/12/15 06:43:28;;;;;;;13.17;7.23;;;;;;;;;;5027235;28;20247;-70
2020/12/15 06:46:07;;;;;;;15.17;7.97;;;;;;;;;;5010572;28;20191;-70
2020/12/15 06:48:33;;;;;;;13.07;8.88;;;;;;;;;;5017130;28;20434;-70
2020/12/15 06:50:58;;;;;;;12.35;7.43;;;;;;;;;;4668362;28;9999890;-70
2020/12/15 06:53:24;;;;;;;13.40;7.63;;;;;;;;;;5021556;28;20198;-70
2020/12/15 06:56:02;;;;;;;16.67;8.43;;;;;;;;;;5013012;28;20630;-70
2020/12/15 06:58:28;;;;;;;11.43;6.43;;;;;;;;;;5006776;28;21493;-70
2020/12/15 07:00:54;;;;;;;13.13;7.03;;;;;;;;;;5011546;28;20197;-70
2020/12/15 07:03:36;;;;;;;13.30;7.27;;;;;;;;;;5023977;28;20194;-70
2020/12/15 07:06:09;;;;;;;12.17;7.27;;;;;;;;;;5015544;28;20190;-70
2020/12/15 07:08:35;;;;;;;12.73;7.73;;;;;;;;;;5016039;28;20213;-70
2020/12/15 07:11:00;;;;;;;12.33;7.77;;;;;;;;;;5014942;28;20200;-70
2020/12/15 07:13:25;;;;;;;15.60;6.80;;;;;;;;;;5021719;28;20758;-70
2020/12/15 07:15:50;;;;;;;12.80;7.60;;;;;;;;;;5007985;28;20205;-70
2020/12/15 07:18:16;;;;;;;14.77;7.57;;;;;;;;;;5022581;28;20193;-70
2020/12/15 07:20:42;;;;;;;11.03;7.03;;;;;;;;;;5017171;28;23240;-70
2020/12/15 07:23:07;;;;;;;14.53;8.00;;;;;;;;;;5022903;28;20189;-70
2020/12/15 07:25:32;;;;;;;16.20;7.70;;;;;;;;;;5020535;28;20687;-70
2020/12/15 07:27:58;;;;;;;14.93;8.03;;;;;;;;;;5022136;28;20214;-70
2020/12/15 07:30:23;;;;;;;15.33;7.70;;;;;;;;;;5020481;28;20170;-70
2020/12/15 07:32:49;;;;;;;14.03;7.67;;;;;;;;;;5015155;28;20537;-70
2020/12/15 07:35:20;;;;;;;17.17;8.13;;;;;;;;;;5027282;28;20185;-70
2020/12/15 07:37:47;;;;;;;15.20;7.70;;;;;;;;;;5015016;28;20630;-70
2020/12/15 07:40:14;;;;;;;13.60;8.03;;;;;;;;;;5026727;28;20184;-70
2020/12/15 07:42:40;;;;;;;13.23;7.73;;;;;;;;;;5015456;28;20200;-70
2020/12/15 07:45:08;;;;;;;13.33;7.60;;;;;;;;;;5023123;28;20692;-70
2020/12/15 07:47:41;;;;;;;17.23;7.85;;;;;;;;;;5014721;28;20222;-70
2020/12/15 07:50:08;;;;;;;12.40;8.13;;;;;;;;;;5029101;28;20582;-70
2020/12/15 07:52:36;;;;;;;15.13;7.50;;;;;;;;;;5014259;28;20189;-70
2020/12/15 07:55:13;;;;;;;12.33;7.60;;;;;;;;;;5017872;28;20320;-70
2020/12/15 07:57:40;;;;;;;15.03;7.97;;;;;;;;;;5014154;28;20274;-70
2020/12/15 08:00:15;;;;;;;13.23;8.45;;;;;;;;;;5015354;28;20197;-70
2020/12/15 08:02:41;;;;;;;13.97;7.70;;;;;;;;;;5015314;28;20208;-70
2020/12/15 08:05:08;;;;;;;13.77;8.43;;;;;;;;;;5024863;28;20660;-70
2020/12/15 08:07:38;;;;;;;12.20;7.90;;;;;;;;;;5023976;28;20740;-70
2020/12/15 08:10:04;;;;;;;14.77;8.23;;;;;;;;;;5019083;28;20182;-70
2020/12/15 08:12:32;;;;;;;12.52;7.78;;;;;;;;;;5022042;28;20190;-70
2020/12/15 08:14:57;;;;;;;14.75;8.60;;;;;;;;;;5014267;28;20625;-70
2020/12/15 08:17:24;;;;;;;13.30;8.00;;;;;;;;;;5022644;28;20229;-70
2020/12/15 08:19:49;;;;;;;14.65;8.93;;;;;;;;;;5013801;28;20265;-70
2020/12/15 08:22:18;;;;;;;20.20;8.93;;;;;;;;;;5024258;28;20292;-70
2020/12/15 08:24:49;;;;;;;13.35;7.78;;;;;;;;;;5019351;28;20476;-70
2020/12/15 08:27:15;;;;;;;13.88;8.23;;;;;;;;;;5022245;28;20569;-70
2020/12/15 08:29:40;;;;;;;15.80;8.38;;;;;;;;;;5018485;28;20248;-70
2020/12/15 08:32:05;;;;;;;14.90;8.82;;;;;;;;;;5021028;28;20261;-70
2020/12/15 08:34:31;;;;;;;12.05;8.27;;;;;;;;;;5012709;28;20610;-70
2020/12/15 08:36:56;;;;;;;14.52;8.38;;;;;;;;;;5022755;28;20562;-70
2020/12/15 08:39:23;;;;;;;11.13;8.00;;;;;;;;;;5018070;28;20206;-70
2020/12/15 08:41:53;;;;;;;12.32;8.85;;;;;;;;;;5013444;28;20202;-70
2020/12/15 08:44:20;;;;;;;13.70;8.27;;;;;;;;;;5024002;28;20243;-70
2020/12/15 08:46:46;;;;;;;15.90;8.77;;;;;;;;;;5016771;28;20190;-70
2020/12/15 08:49:13;;;;;;;17.40;8.80;;;;;;;;;;5020989;28;20206;-70
2020/12/15 08:51:40;;;;;;;13.90;8.60;;;;;;;;;;5013769;28;20194;-70
2020/12/15 08:54:07;;;;;;;15.03;9.20;;;;;;;;;;5017773;28;20182;-70
2020/12/15 08:56:33;;;;;;;22.63;8.97;;;;;;;;;;5010490;28;20209;-70
2020/12/15 08:59:12;;;;;;;14.43;9.00;;;;;;;;;;5002961;28;20594;-70
2020/12/15 09:01:38;;;;;;;14.43;9.47;;;;;;;;;;4999802;28;20182;-70
2020/12/15 09:04:03;;;;;;;14.43;9.50;;;;;;;;;;5008752;28;20243;-70
2020/12/15 09:06:33;;;;;;;15.37;8.60;;;;;;;;;;5007927;28;20214;-70
2020/12/15 09:08:59;;;;;;;12.53;8.67;;;;;;;;;;5005904;28;20265;-70
2020/12/15 09:11:25;;;;;;;14.05;8.85;;;;;;;;;;5004652;28;20230;-70
2020/12/15 09:13:58;;;;;;;13.87;8.73;;;;;;;;;;5012220;28;20248;-70
2020/12/15 09:16:29;;;;;;;15.55;8.55;;;;;;;;;;4995072;28;20179;-70
2020/12/15 09:18:55;;;;;;;14.38;9.30;;;;;;;;;;5016466;28;20217;-70
2020/12/15 09:21:21;;;;;;;13.98;8.75;;;;;;;;;;5006441;28;20195;-70
2020/12/15 09:23:51;;;;;;;14.43;9.05;;;;;;;;;;5005562;28;20206;-72
2020/12/15 09:26:17;;;;;;;14.68;9.77;;;;;;;;;;4323355;28;10000863;-72
2020/12/15 09:28:42;;;;;;;14.25;10.50;;;;;;;;;;5007767;28;20221;-71
2020/12/15 09:31:11;;;;;;;15.55;9.40;;;;;;;;;;5014288;28;20502;-71
2020/12/15 09:33:36;;;;;;;14.20;10.07;;;;;;;;;;4999991;28;20296;-71
2020/12/15 09:36:01;;;;;;;20.23;10.35;;;;;;;;;;5018197;28;20657;-72
2020/12/15 09:38:27;;;;;;;13.25;10.00;;;;;;;;;;5004015;28;20266;-72
2020/12/15 09:40:52;;;;;;;14.32;10.85;;;;;;;;;;5015236;28;20396;-71
2020/12/15 09:43:18;;;;;;;14.70;10.70;;;;;;;;;;5008023;28;20206;-72
2020/12/15 09:45:43;;;;;;;18.77;12.07;;;;;;;;;;5021016;28;20637;-72
2020/12/15 09:48:08;;;;;;;16.63;11.13;;;;;;;;;;5007890;28;20218;-71
2020/12/15 09:50:34;;;;;;;18.42;11.85;;;;;;;;;;5014477;28;20218;-72
2020/12/15 09:53:00;;;;;;;16.10;12.07;;;;;;;;;;5015931;28;20273;-72
2020/12/15 09:55:25;;;;;;;17.85;12.48;;;;;;;;;;5009599;28;20208;-72
2020/12/15 09:57:50;;;;;;;18.15;12.52;;;;;;;;;;5016766;28;20189;-72
2020/12/15 10:00:16;;;;;;;18.77;12.32;;;;;;;;;;5005989;28;20204;-72
2020/12/15 10:02:41;;;;;;;17.70;13.07;;;;;;;;;;5016156;28;20511;-72
2020/12/15 10:05:10;;;;;;;17.95;12.80;;;;;;;;;;5007830;28;20205;-72
2020/12/15 10:07:36;;;;;;;18.42;12.60;;;;;;;;;;5017621;28;20218;-72
2020/12/15 10:10:02;;;;;;;17.52;12.77;;;;;;;;;;5002400;28;20190;-72
2020/12/15 10:12:27;;;;;;;18.48;13.73;;;;;;;;;;5017074;28;20558;-71
2020/12/15 10:14:52;;;;;;;17.92;13.85;;;;;;;;;;5002508;28;20194;-72
2020/12/15 10:17:18;;;;;;;16.65;12.98;;;;;;;;;;5017886;28;20186;-72
2020/12/15 10:19:44;;;;;;;21.00;14.32;;;;;;;;;;5003944;28;20660;-72
2020/12/15 10:22:09;;;;;;;18.42;14.55;;;;;;;;;;5018984;28;20541;-72
2020/12/15 10:24:34;;;;;;;17.55;13.75;;;;;;;;;;5017912;28;20659;-72
2020/12/15 10:27:00;;;;;;;17.45;13.23;;;;;;;;;;5006650;28;20204;-73
2020/12/15 10:29:29;;;;;;;19.58;14.65;;;;;;;;;;5017951;28;20205;-73
2020/12/15 10:31:55;;;;;;;17.67;13.60;;;;;;;;;;5009807;28;20237;-72
2020/12/15 10:34:20;;;;;;;17.80;13.43;;;;;;;;;;5018003;28;20267;-72
2020/12/15 10:36:52;;;;;;;18.48;14.10;;;;;;;;;;5014492;28;20177;-72
2020/12/15 10:39:17;;;;;;;18.60;14.13;;;;;;;;;;5023940;28;20620;-72
2020/12/15 10:41:43;;;;;;;19.60;14.93;;;;;;;;;;5015929;28;20236;-72
2020/12/15 10:44:14;;;;;;;18.38;14.45;;;;;;;;;;5016374;28;20239;-72
2020/12/15 10:46:40;;;;;;;21.73;15.67;;;;;;;;;;5014243;28;20194;-72
2020/12/15 10:49:06;;;;;;;18.70;14.43;;;;;;;;;;5017874;28;20198;-72
2020/12/15 10:51:31;;;;;;;20.00;15.88;;;;;;;;;;5013707;28;20240;-72
2020/12/15 10:53:57;;;;;;;20.45;15.65;;;;;;;;;;5023694;28;20186;-71
2020/12/15 10:56:22;;;;;;;21.40;15.67;;;;;;;;;;5015173;28;20182;-72
2020/12/15 10:58:48;;;;;;;20.75;15.25;;;;;;;;;;5022150;28;20186;-72
2020/12/15 11:01:14;;;;;;;19.08;14.70;;;;;;;;;;5021416;28;20185;-71
2020/12/15 11:03:39;;;;;;;19.20;15.23;;;;;;;;;;5010617;28;20218;-71
2020/12/15 11:06:05;;;;;;;20.73;16.83;;;;;;;;;;5024634;28;20255;-71
2020/12/15 11:08:30;;;;;;;23.73;15.48;;;;;;;;;;5016078;28;20213;-72
2020/12/15 11:10:55;;;;;;;21.27;17.00;;;;;;;;;;5023519;28;20181;-72
2020/12/15 11:13:21;;;;;;;19.63;15.05;;;;;;;;;;5019581;28;20595;-71
2020/12/15 11:15:46;;;;;;;21.98;15.55;;;;;;;;;;5025668;28;20185;-72
2020/12/15 11:18:12;;;;;;;17.67;13.90;;;;;;;;;;5017943;28;20182;-70
2020/12/15 11:20:37;;;;;;;17.83;14.50;;;;;;;;;;5024887;28;20228;-71
2020/12/15 11:23:02;;;;;;;23.80;14.82;;;;;;;;;;5012202;28;20198;-71
2020/12/15 11:25:28;;;;;;;21.10;15.30;;;;;;;;;;5022593;28;20186;-70
2020/12/15 11:27:53;;;;;;;20.97;15.10;;;;;;;;;;5007163;28;20206;-71
2020/12/15 11:30:18;;;;;;;18.73;14.32;;;;;;;;;;5023288;28;20193;-71
2020/12/15 11:32:46;;;;;;;18.47;14.60;;;;;;;;;;5026082;28;20637;-70
2020/12/15 11:35:11;;;;;;;22.02;14.85;;;;;;;;;;5015355;28;20320;-70
2020/12/15 11:37:40;;;;;;;17.63;14.07;;;;;;;;;;5021089;28;20278;-71
2020/12/15 11:40:06;;;;;;;18.57;15.13;;;;;;;;;;5017569;28;20575;-71
2020/12/15 11:42:32;;;;;;;21.40;15.65;;;;;;;;;;5029730;28;20530;-70
2020/12/15 11:44:57;;;;;;;16.75;13.77;;;;;;;;;;5016489;28;20190;-70
2020/12/15 11:47:23;;;;;;;21.73;14.43;;;;;;;;;;5025033;28;20248;-70
2020/12/15 11:49:50;;;;;;;19.10;14.17;;;;;;;;;;5015504;28;20186;-71
2020/12/15 11:52:15;;;;;;;19.87;14.43;;;;;;;;;;5022877;28;20194;-70
2020/12/15 11:54:41;;;;;;;19.40;14.68;;;;;;;;;;5030052;28;20190;-70
2020/12/15 11:57:07;;;;;;;17.23;13.00;;;;;;;;;;5026413;28;20962;-71
2020/12/15 11:59:32;;;;;;;21.92;15.07;;;;;;;;;;5017811;28;20186;-71
2020/12/15 12:01:57;;;;;;;18.53;13.73;;;;;;;;;;5024750;28;20637;-70
2020/12/15 12:04:22;;;;;;;19.80;15.13;;;;;;;;;;5022925;28;20185;-70
2020/12/15 12:06:48;;;;;;;20.17;15.30;;;;;;;;;;5014972;28;20218;-70
2020/12/15 12:09:13;;;;;;;20.98;15.35;;;;;;;;;;5022528;28;20673;-70
2020/12/15 12:11:38;;;;;;;19.27;14.77;;;;;;;;;;5015232;28;20188;-71
2020/12/15 12:14:04;;;;;;;20.60;16.63;;;;;;;;;;5022871;28;20233;-71
2020/12/15 12:16:29;;;;;;;20.77;15.80;;;;;;;;;;5018236;28;20198;-71
2020/12/15 12:18:54;;;;;;;19.20;15.13;;;;;;;;;;5022762;28;20170;-71
2020/12/15 12:21:20;;;;;;;24.57;15.90;;;;;;;;;;5013279;28;20281;-71
2020/12/15 12:23:45;;;;;;;23.00;16.53;;;;;;;;;;5027119;28;20178;-71
2020/12/15 12:26:14;;;;;;;24.30;17.45;;;;;;;;;;5020000;28;20193;-71
2020/12/15 12:28:39;;;;;;;24.50;17.67;;;;;;;;;;5025373;28;20313;-71
2020/12/15 12:31:05;;;;;;;25.67;17.63;;;;;;;;;;5012741;28;20281;-71
2020/12/15 12:33:30;;;;;;;23.50;17.83;;;;;;;;;;5027153;28;20330;-71
2020/12/15 12:35:55;;;;;;;25.47;18.67;;;;;;;;;;5043039;28;20257;-71
2020/12/15 12:38:21;;;;;;;25.70;18.87;;;;;;;;;;5016494;28;20197;-71
2020/12/15 12:40:48;;;;;;;26.23;17.40;;;;;;;;;;5030759;28;20197;-71
2020/12/15 12:43:14;;;;;;;26.42;19.08;;;;;;;;;;5016728;28;20521;-71
2020/12/15 12:45:40;;;;;;;23.30;18.08;;;;;;;;;;5024681;28;20654;-71
2020/12/15 12:48:07;;;;;;;26.73;18.80;;;;;;;;;;5014409;28;20293;-71
2020/12/15 12:50:32;;;;;;;25.47;18.60;;;;;;;;;;5026269;28;20191;-71
2020/12/15 12:52:58;;;;;;;26.17;18.80;;;;;;;;;;5015051;28;20198;-71
2020/12/15 12:55:23;;;;;;;25.37;19.23;;;;;;;;;;5021661;28;20261;-75
2020/12/15 12:57:50;;;;;;;27.57;18.73;;;;;;;;;;5012968;28;20701;-71
2020/12/15 13:00:15;;;;;;;27.60;19.23;;;;;;;;;;5022584;28;20192;-71
2020/12/15 13:02:41;;;;;;;26.47;18.77;;;;;;;;;;5013201;28;20194;-71
2020/12/15 13:05:07;;;;;;;26.10;19.00;;;;;;;;;;5029285;28;20222;-71
2020/12/15 13:07:32;;;;;;;28.87;19.53;;;;;;;;;;5018432;28;20263;-71
2020/12/15 13:09:57;;;;;;;30.27;19.27;;;;;;;;;;5014977;28;20220;-71
2020/12/15 13:12:23;;;;;;;25.40;18.73;;;;;;;;;;5017318;28;20222;-72
2020/12/15 13:14:48;;;;;;;23.77;18.57;;;;;;;;;;5016962;28;20580;-72
2020/12/15 13:17:14;;;;;;;27.40;19.53;;;;;;;;;;5022508;28;20212;-72
2020/12/15 13:19:39;;;;;;;28.50;19.90;;;;;;;;;;5030488;28;20252;-75
2020/12/15 13:22:04;;;;;;;25.90;19.07;;;;;;;;;;5023174;28;20237;-73
2020/12/15 13:24:30;;;;;;;27.57;19.47;;;;;;;;;;5016970;28;20197;-72
2020/12/15 13:26:55;;;;;;;26.25;19.17;;;;;;;;;;5022525;28;20520;-73
2020/12/15 13:29:21;;;;;;;25.00;19.00;;;;;;;;;;5013327;28;20222;-72
2020/12/15 13:31:46;;;;;;;25.83;19.52;;;;;;;;;;5020966;28;20221;-72
2020/12/15 13:34:12;;;;;;;26.57;19.83;;;;;;;;;;5013759;28;20595;-72
2020/12/15 13:36:39;;;;;;;23.97;19.00;;;;;;;;;;5017256;28;20186;-74
2020/12/15 13:39:05;;;;;;;26.13;19.20;;;;;;;;;;5015712;28;20187;-73
2020/12/15 13:41:30;;;;;;;24.50;19.00;;;;;;;;;;5012063;28;20766;-72
2020/12/15 13:43:56;;;;;;;25.77;19.43;;;;;;;;;;5019597;28;20609;-72
2020/12/15 13:46:21;;;;;;;27.02;18.50;;;;;;;;;;5014815;28;20206;-71
2020/12/15 13:48:46;;;;;;;27.23;20.30;;;;;;;;;;5014728;28;20218;-71
2020/12/15 13:51:12;;;;;;;25.45;18.67;;;;;;;;;;5012578;28;20619;-72
2020/12/15 13:53:37;;;;;;;24.65;17.83;;;;;;;;;;5023475;28;20536;-72
2020/12/15 13:56:03;;;;;;;24.75;17.60;;;;;;;;;;5017505;28;20214;-72
2020/12/15 13:58:28;;;;;;;25.52;16.25;;;;;;;;;;5023131;28;20174;-72
2020/12/15 14:00:53;;;;;;;22.92;17.92;;;;;;;;;;5030499;28;20232;-71
2020/12/15 14:03:19;;;;;;;22.80;17.87;;;;;;;;;;5019190;28;20202;-71
2020/12/15 14:05:45;;;;;;;24.95;18.67;;;;;;;;;;5021940;28;20214;-71
2020/12/15 14:08:10;;;;;;;22.30;18.20;;;;;;;;;;5004081;28;20589;-71
2020/12/15 14:10:35;;;;;;;22.27;17.30;;;;;;;;;;5023068;28;20185;-70
2020/12/15 14:13:01;;;;;;;21.33;17.50;;;;;;;;;;4318641;28;10000834;-71
2020/12/15 14:15:27;;;;;;;21.57;17.23;;;;;;;;;;5018152;28;20745;-71
2020/12/15 14:17:52;;;;;;;20.70;16.88;;;;;;;;;;5005544;28;20272;-71
2020/12/15 14:20:17;;;;;;;22.85;17.08;;;;;;;;;;5019259;28;20206;-71
2020/12/15 14:22:43;;;;;;;23.05;17.80;;;;;;;;;;5012941;28;20192;-71